createdAt,value
2023-05-24T00:17:54.750Z,38.47
2023-05-24T00:20:51.595Z,33.15
2023-05-24T00:23:23.639Z,34.55
2023-05-24T00:29:50.669Z,33.28
2023-05-24T00:32:49.929Z,35.33
2023-05-24T00:39:28.683Z,31.13
2023-05-24T00:44:51.289Z,37.75
2023-05-24T00:50:40.676Z,34.05
2023-05-24T00:57:20.980Z,33.37
2023-05-24T00:59:49.721Z,33.55
2023-05-24T01:04:59.740Z,36.30
2023-05-24T01:07:00.862Z,38.95
2023-05-24T01:12:59.556Z,34.58
2023-05-24T02:06:28.248Z,32.08
2023-05-24T02:09:20.752Z,30.88
2023-05-24T02:12:10.924Z,38.50
2023-05-24T02:17:38.743Z,37.00
2023-05-24T02:20:20.379Z,38.63
2023-05-24T02:22:50.184Z,32.05
2023-05-24T02:25:18.674Z,31.77
2023-05-24T02:27:48.249Z,33.17
2023-05-24T02:30:16.809Z,36.80
2023-05-24T02:32:48.734Z,41.65
2023-05-24T02:35:20.056Z,36.25
2023-05-24T02:40:16.726Z,30.98
2023-05-24T02:42:47.926Z,35.95
2023-05-24T02:45:16.489Z,36.15
2023-05-24T02:47:45.116Z,31.65
2023-05-24T02:50:13.658Z,34.15
2023-05-24T02:52:44.575Z,39.85
2023-05-24T02:55:15.394Z,38.40
2023-05-24T02:57:43.769Z,36.33
2023-05-24T03:00:13.401Z,41.15
2023-05-24T03:02:42.794Z,34.92
2023-05-24T03:05:11.320Z,42.40
2023-05-24T03:07:40.656Z,41.83
2023-05-24T03:10:09.637Z,44.30
2023-05-24T03:12:38.595Z,37.40
2023-05-24T03:15:07.550Z,43.08
2023-05-24T03:17:35.847Z,41.83
2023-05-24T03:20:12.593Z,33.60
2023-05-24T03:22:44.010Z,32.95
2023-05-24T03:27:40.472Z,35.78
2023-05-24T03:30:09.587Z,43.47
2023-05-24T03:32:37.985Z,37.85
2023-05-24T03:35:07.164Z,35.78
2023-05-24T03:37:35.533Z,30.58
2023-05-24T03:40:05.645Z,31.23
2023-05-24T03:42:34.048Z,37.15
2023-05-24T03:45:02.327Z,40.35
2023-05-24T03:47:30.614Z,34.88
2023-05-24T03:49:59.126Z,40.60
2023-05-24T03:52:27.741Z,47.05
2023-05-24T03:54:56.199Z,37.15
2023-05-24T03:57:24.576Z,30.33
2023-05-24T03:59:53.059Z,39.75
2023-05-24T04:02:21.443Z,38.10
2023-05-24T04:04:50.092Z,36.75
2023-05-24T04:07:18.955Z,42.88
2023-05-24T04:09:47.289Z,33.80
2023-05-24T04:12:16.146Z,40.20
2023-05-24T04:14:44.418Z,42.45
2023-05-24T04:17:13.201Z,34.00
2023-05-24T04:19:41.885Z,41.53
2023-05-24T04:22:10.357Z,34.83
2023-05-24T04:24:39.223Z,37.50
2023-05-24T04:27:08.143Z,36.97
2023-05-24T04:29:36.433Z,33.60
2023-05-24T04:32:04.751Z,42.13
2023-05-24T04:34:34.734Z,37.80
2023-05-24T04:37:03.424Z,31.30
2023-05-24T04:39:31.896Z,37.22
2023-05-24T04:42:01.509Z,36.67
2023-05-24T04:44:29.824Z,34.08
2023-05-24T04:46:58.803Z,34.33
2023-05-24T04:49:27.960Z,35.00
2023-05-24T04:51:57.529Z,35.45
2023-05-24T04:54:25.936Z,42.83
2023-05-24T04:56:54.219Z,27.05
2023-05-24T04:59:22.542Z,42.20
2023-05-24T05:01:51.116Z,43.13
2023-05-24T05:04:19.464Z,35.65
2023-05-24T05:06:49.231Z,36.17
2023-05-24T05:09:18.330Z,35.65
2023-05-24T05:11:49.240Z,41.75
2023-05-24T05:14:18.435Z,35.08
2023-05-24T05:16:47.296Z,42.05
2023-05-24T05:19:15.932Z,41.55
2023-05-24T05:21:44.337Z,37.47
2023-05-24T05:24:12.676Z,34.08
2023-05-24T05:26:41.283Z,40.17
2023-05-24T05:29:09.826Z,42.97
2023-05-24T05:31:38.189Z,44.15
2023-05-24T05:34:10.596Z,48.17
2023-05-24T05:36:41.727Z,38.63
2023-05-24T05:39:13.094Z,39.95
2023-05-24T05:44:14.678Z,45.20
2023-05-24T05:46:46.875Z,41.60
2023-05-24T05:49:16.181Z,43.88
2023-05-24T05:51:44.444Z,38.15
2023-05-24T05:54:19.262Z,39.05
2023-05-24T05:56:48.892Z,43.45
2023-05-24T05:59:17.263Z,44.20
2023-05-24T06:01:48.367Z,39.22
2023-05-24T06:04:17.697Z,46.78
2023-05-24T06:06:53.006Z,36.50
2023-05-24T06:09:21.541Z,40.97
2023-05-24T06:11:49.988Z,43.63
2023-05-24T06:14:19.200Z,40.00
2023-05-24T06:16:48.958Z,44.55
2023-05-24T06:19:17.633Z,38.75
2023-05-24T06:21:49.380Z,42.83
2023-05-24T06:24:22.185Z,38.70
2023-05-24T06:26:52.758Z,41.25
2023-05-24T06:29:23.220Z,35.37
2023-05-24T06:31:51.896Z,40.03
2023-05-24T06:34:23.760Z,42.85
2023-05-24T06:36:53.762Z,43.00
2023-05-24T06:39:22.394Z,32.30
2023-05-24T06:41:52.246Z,38.97
2023-05-24T06:44:21.417Z,37.75
2023-05-24T06:46:51.174Z,37.75
2023-05-24T06:49:19.610Z,41.05
2023-05-24T06:51:48.691Z,39.42
2023-05-24T06:54:17.477Z,43.60
2023-05-24T06:56:45.917Z,41.60
2023-05-24T06:59:14.307Z,37.70
2023-05-24T07:01:43.948Z,53.03
2023-05-24T07:04:12.573Z,41.28
2023-05-24T07:06:40.878Z,36.08
2023-05-24T07:09:11.401Z,44.63
2023-05-24T07:11:40.234Z,39.13
2023-05-24T07:14:08.556Z,40.05
2023-05-24T07:16:37.296Z,34.50
2023-05-24T07:19:05.668Z,46.55
2023-05-24T07:21:33.979Z,47.30
2023-05-24T07:24:02.843Z,42.88
2023-05-24T07:26:31.127Z,36.83
2023-05-24T07:28:59.399Z,42.35
2023-05-24T07:31:28.363Z,46.15
2023-05-24T07:33:56.803Z,53.33
2023-05-24T07:36:26.853Z,42.72
2023-05-24T07:38:55.312Z,44.37
2023-05-24T07:41:28.328Z,40.30
2023-05-24T07:43:57.433Z,38.25
2023-05-24T07:46:25.783Z,39.92
2023-05-24T07:48:57.357Z,47.10
2023-05-24T07:51:26.637Z,45.28
2023-05-24T07:53:55.765Z,42.58
2023-05-24T07:56:24.659Z,42.53
2023-05-24T07:58:53.067Z,46.97
2023-05-24T08:01:21.412Z,49.10
2023-05-24T08:03:56.493Z,48.53
2023-05-24T08:06:25.277Z,49.42
2023-05-24T08:08:54.217Z,44.63
2023-05-24T08:11:23.115Z,38.33
2023-05-24T08:13:54.298Z,46.53
2023-05-24T08:16:22.737Z,45.17
2023-05-24T08:18:54.957Z,43.65
2023-05-24T08:21:24.402Z,46.25
2023-05-24T08:23:53.001Z,48.40
2023-05-24T08:26:21.906Z,56.63
2023-05-24T08:28:50.240Z,38.67
2023-05-24T08:31:18.804Z,55.67
2023-05-24T08:33:51.261Z,44.03
2023-05-24T08:36:19.798Z,57.97
2023-05-24T08:38:48.289Z,51.75
2023-05-24T08:41:16.849Z,45.03
2023-05-24T08:43:45.673Z,48.72
2023-05-24T08:46:15.462Z,50.90
2023-05-24T08:48:48.515Z,40.63
2023-05-24T08:51:17.859Z,46.35
2023-05-24T08:53:50.599Z,40.50
2023-05-24T08:56:20.030Z,47.35
2023-05-24T08:58:48.490Z,42.78
2023-05-24T09:01:18.526Z,48.15
2023-05-24T09:03:51.831Z,44.47
2023-05-24T09:06:20.606Z,42.05
2023-05-24T09:08:53.287Z,38.85
2023-05-24T09:11:23.948Z,44.70
2023-05-24T09:13:53.589Z,46.07
2023-05-24T09:16:22.284Z,45.28
2023-05-24T09:18:50.685Z,46.35
2023-05-24T09:21:19.341Z,41.97
2023-05-24T09:23:48.267Z,46.85
2023-05-24T09:26:16.751Z,43.33
2023-05-24T09:28:45.187Z,45.38
2023-05-24T09:31:14.675Z,43.78
2023-05-24T09:33:42.988Z,38.65
2023-05-24T09:36:12.046Z,37.95
2023-05-24T09:38:40.420Z,40.42
2023-05-24T09:41:11.732Z,40.22
2023-05-24T09:43:53.196Z,40.00
2023-05-24T09:46:22.616Z,41.53
2023-05-24T09:49:00.972Z,29.33
2023-05-24T09:51:29.340Z,35.05
2023-05-24T09:54:04.071Z,37.30
2023-05-24T09:56:34.975Z,36.10
2023-05-24T09:59:10.764Z,31.33
2023-05-24T10:01:39.198Z,36.47
2023-05-24T10:04:10.266Z,29.95
2023-05-24T10:06:40.720Z,33.85
2023-05-24T10:09:10.686Z,29.02
2023-05-24T10:11:39.197Z,27.00
2023-05-24T10:14:10.479Z,26.73
2023-05-24T10:16:41.707Z,34.17
2023-05-24T10:19:10.069Z,35.08
2023-05-24T10:21:43.979Z,24.75
2023-05-24T10:24:20.689Z,26.00
2023-05-24T10:26:50.540Z,27.42
2023-05-24T10:29:34.774Z,26.52
2023-05-24T10:32:05.435Z,29.85
2023-05-24T10:34:34.128Z,27.13
2023-05-24T10:37:02.808Z,24.13
2023-05-24T10:39:34.189Z,25.73
2023-05-24T10:44:38.455Z,26.13
2023-05-24T10:47:15.002Z,28.80
2023-05-24T10:50:00.918Z,30.30
2023-05-24T10:52:37.033Z,40.97
2023-05-24T10:55:12.597Z,37.88
2023-05-24T10:57:41.423Z,53.20
2023-05-24T11:00:34.576Z,45.50
2023-05-24T11:03:07.782Z,46.97
2023-05-24T11:05:50.575Z,42.92
2023-05-24T11:08:44.603Z,31.45
2023-05-24T11:11:25.840Z,34.60
2023-05-24T11:13:59.551Z,38.65
2023-05-24T11:16:40.617Z,41.95
2023-05-24T11:19:30.512Z,43.47
2023-05-24T11:21:59.838Z,41.10
2023-05-24T11:24:29.902Z,41.42
2023-05-24T11:26:58.587Z,39.33
2023-05-24T11:29:27.139Z,49.00
2023-05-24T11:31:58.866Z,42.28
2023-05-24T11:34:28.231Z,36.50
2023-05-24T11:36:57.300Z,42.15
2023-05-24T11:39:26.518Z,33.42
2023-05-24T11:41:55.786Z,48.70
2023-05-24T11:44:24.237Z,40.35
2023-05-24T11:46:59.673Z,47.95
2023-05-24T11:49:28.560Z,39.47
2023-05-24T11:51:58.155Z,44.58
2023-05-24T11:54:32.676Z,41.78
2023-05-24T11:57:01.492Z,36.35
2023-05-24T11:59:31.410Z,41.10
2023-05-24T12:02:02.260Z,39.22
2023-05-24T12:04:32.003Z,40.42
2023-05-24T12:07:00.766Z,39.55
2023-05-24T12:09:29.592Z,36.53
2023-05-24T12:11:59.235Z,36.20
2023-05-24T12:14:32.292Z,35.65
2023-05-24T12:17:02.053Z,45.92
2023-05-24T12:19:53.415Z,34.30
2023-05-24T12:25:05.720Z,41.83
2023-05-24T12:27:51.623Z,43.42
2023-05-24T12:30:29.372Z,30.48
2023-05-24T12:32:58.960Z,32.08
2023-05-24T12:35:34.000Z,33.20
2023-05-24T12:38:02.288Z,41.88
2023-05-24T12:46:30.719Z,36.40
2023-05-24T12:49:03.336Z,38.55
2023-05-24T12:51:32.303Z,32.80
2023-05-24T12:54:02.927Z,33.28
2023-05-24T12:56:31.291Z,43.03
2023-05-24T12:59:02.840Z,36.33
2023-05-24T13:01:33.583Z,34.08
2023-05-24T13:04:08.429Z,25.45
2023-05-24T13:10:55.376Z,35.63
2023-05-24T13:13:34.268Z,40.30
2023-05-24T13:16:06.506Z,40.33
2023-05-24T13:18:35.527Z,33.03
2023-05-24T13:21:06.328Z,39.80
2023-05-24T13:24:02.797Z,34.38
2023-05-24T13:26:38.496Z,31.67
2023-05-24T13:29:45.562Z,45.47
2023-05-24T13:32:23.787Z,40.28
2023-05-24T13:35:06.641Z,40.83
2023-05-24T13:37:36.688Z,35.67
2023-05-24T13:40:05.484Z,38.78
2023-05-24T13:42:33.899Z,37.55
2023-05-24T13:47:40.138Z,37.58
2023-05-24T13:50:40.538Z,30.75
2023-05-24T13:56:35.088Z,28.42
2023-05-24T13:59:36.602Z,36.97
2023-05-24T14:02:05.169Z,34.60
2023-05-24T14:07:34.129Z,36.80
2023-05-24T14:10:03.875Z,26.98
2023-05-24T14:12:34.351Z,33.85
2023-05-24T15:37:43.414Z,24.55
2023-05-24T15:41:13.423Z,25.88
2023-05-24T15:43:42.298Z,19.60
2023-05-24T15:46:33.155Z,24.83
2023-05-24T15:49:34.084Z,20.97
2023-05-24T15:52:06.189Z,21.27
2023-05-24T15:54:35.429Z,26.25
2023-05-24T15:57:04.569Z,21.00
2023-05-24T15:59:37.733Z,12.68
2023-05-24T16:02:36.364Z,20.88
2023-05-24T16:05:10.415Z,18.42
2023-05-24T16:07:38.751Z,21.48
2023-05-24T16:10:38.470Z,20.92
2023-05-24T16:13:34.329Z,19.50
2023-05-24T16:16:35.873Z,27.42
2023-05-24T16:19:33.489Z,21.33
2023-05-24T16:22:42.902Z,23.20
2023-05-24T16:25:05.496Z,21.08
2023-05-24T16:27:36.676Z,21.23
2023-05-24T16:36:07.386Z,25.10
2023-05-24T17:23:18.591Z,24.73
2023-05-24T17:26:09.020Z,23.48
2023-05-24T17:29:14.028Z,18.75
2023-05-24T17:32:06.054Z,20.38
2023-05-24T17:38:04.953Z,22.83
2023-05-24T17:47:08.518Z,25.35
2023-05-24T17:49:37.334Z,21.45
2023-05-24T17:54:38.154Z,17.88
2023-05-24T17:57:06.763Z,26.90
2023-05-24T18:03:09.368Z,24.92
2023-05-24T18:06:07.895Z,25.50
2023-05-24T18:08:39.036Z,17.77
2023-05-24T18:11:10.541Z,19.13
2023-05-24T18:14:08.527Z,26.77
2023-05-24T18:20:11.393Z,25.58
2023-05-24T18:22:46.301Z,26.77
2023-05-24T18:29:10.584Z,21.77
2023-05-24T18:32:15.152Z,18.52
2023-05-24T19:21:25.360Z,20.80
2023-05-24T20:53:28.120Z,13.02
2023-05-24T20:57:39.419Z,15.80
2023-05-24T21:20:46.162Z,12.43
2023-05-24T21:29:47.148Z,12.35
2023-05-24T22:17:52.733Z,9.93
